createdAt,value
2023-01-29T00:00:15.495Z,9.45
2023-01-29T00:02:43.250Z,7.80
2023-01-29T00:05:26.583Z,7.88
2023-01-29T00:07:56.908Z,8.63
2023-01-29T00:10:27.426Z,8.48
2023-01-29T00:12:57.191Z,9.30
2023-01-29T00:15:24.591Z,8.07
2023-01-29T00:17:52.999Z,7.63
2023-01-29T00:20:20.422Z,9.10
2023-01-29T00:22:47.692Z,7.72
2023-01-29T00:25:15.096Z,7.55
2023-01-29T00:27:43.448Z,7.57
2023-01-29T00:30:19.350Z,7.30
2023-01-29T00:32:47.204Z,7.43
2023-01-29T00:35:14.607Z,6.88
2023-01-29T00:37:42.058Z,7.57
2023-01-29T00:40:10.739Z,6.85
2023-01-29T00:42:56.443Z,7.53
2023-01-29T00:45:23.711Z,6.70
2023-01-29T00:47:51.055Z,7.00
2023-01-29T00:50:18.893Z,8.05
2023-01-29T00:52:53.004Z,7.30
2023-01-29T00:55:20.584Z,7.07
2023-01-29T00:57:48.457Z,6.82
2023-01-29T01:00:19.424Z,7.30
2023-01-29T01:03:05.690Z,7.20
2023-01-29T01:05:33.271Z,6.93
2023-01-29T01:08:00.547Z,6.80
2023-01-29T01:10:33.632Z,7.28
2023-01-29T01:13:07.683Z,6.95
2023-01-29T01:15:41.567Z,6.97
2023-01-29T01:18:08.931Z,6.90
2023-01-29T01:20:37.155Z,7.10
2023-01-29T01:23:05.427Z,7.70
2023-01-29T01:25:33.350Z,7.30
2023-01-29T01:28:01.359Z,8.02
2023-01-29T01:30:28.986Z,7.50
2023-01-29T01:32:56.428Z,7.07
2023-01-29T01:35:23.851Z,7.53
2023-01-29T01:37:53.819Z,7.57
2023-01-29T01:40:24.580Z,7.03
2023-01-29T01:42:59.256Z,7.00
2023-01-29T01:45:46.739Z,6.72
2023-01-29T01:48:25.754Z,7.05
2023-01-29T01:51:03.298Z,7.05
2023-01-29T01:53:41.135Z,6.97
2023-01-29T01:56:16.682Z,6.88
2023-01-29T01:58:56.889Z,7.40
2023-01-29T02:01:30.164Z,6.55
2023-01-29T02:04:28.027Z,6.68
2023-01-29T02:07:17.827Z,6.82
2023-01-29T02:09:58.449Z,6.97
2023-01-29T02:12:31.174Z,6.90
2023-01-29T02:14:59.986Z,6.43
2023-01-29T02:17:30.616Z,6.93
2023-01-29T02:20:18.819Z,6.32
2023-01-29T02:22:56.519Z,6.55
2023-01-29T02:26:13.670Z,6.55
2023-01-29T02:29:22.331Z,6.85
2023-01-29T02:32:32.464Z,6.60
2023-01-29T02:35:34.828Z,6.72
2023-01-29T02:38:31.914Z,6.70
2023-01-29T02:41:15.191Z,6.57
2023-01-29T02:44:00.819Z,6.38
2023-01-29T02:46:52.491Z,6.95
2023-01-29T02:49:49.050Z,6.25
2023-01-29T02:52:26.909Z,7.03
2023-01-29T02:55:12.351Z,6.50
2023-01-29T02:57:48.901Z,6.55
2023-01-29T03:00:30.916Z,6.60
2023-01-29T03:03:26.203Z,7.07
2023-01-29T03:06:28.440Z,6.35
2023-01-29T03:09:09.527Z,6.38
2023-01-29T03:11:48.606Z,6.85
2023-01-29T03:15:09.513Z,7.10
2023-01-29T03:17:58.758Z,7.82
2023-01-29T03:20:36.868Z,6.25
2023-01-29T03:23:23.748Z,6.40
2023-01-29T03:26:18.104Z,6.75
2023-01-29T03:29:06.752Z,6.22
2023-01-29T03:31:55.971Z,6.80
2023-01-29T03:34:34.665Z,6.80
2023-01-29T03:37:13.869Z,6.10
2023-01-29T03:39:41.936Z,6.30
2023-01-29T03:42:35.647Z,6.70
2023-01-29T03:45:50.848Z,6.57
2023-01-29T03:49:02.638Z,5.97
2023-01-29T03:51:48.010Z,6.13
2023-01-29T03:54:40.878Z,6.40
2023-01-29T03:57:39.526Z,6.75
2023-01-29T04:00:23.667Z,6.32
2023-01-29T04:03:24.663Z,6.22
2023-01-29T04:06:20.506Z,6.43
2023-01-29T04:09:12.309Z,6.72
2023-01-29T04:12:16.006Z,6.78
2023-01-29T04:14:46.386Z,6.75
2023-01-29T04:17:23.814Z,6.57
2023-01-29T04:20:12.502Z,6.45
2023-01-29T04:22:49.927Z,6.50
2023-01-29T04:25:38.941Z,6.18
2023-01-29T04:28:29.003Z,6.85
2023-01-29T04:31:15.527Z,6.60
2023-01-29T04:34:20.959Z,6.82
2023-01-29T04:37:17.556Z,6.72
2023-01-29T04:40:17.748Z,6.53
2023-01-29T04:43:12.485Z,6.68
2023-01-29T04:46:04.297Z,7.97
2023-01-29T04:48:52.592Z,8.10
2023-01-29T04:51:50.146Z,7.70
2023-01-29T04:54:23.400Z,7.10
2023-01-29T04:56:55.810Z,7.32
2023-01-29T04:59:42.388Z,7.13
2023-01-29T05:02:12.476Z,6.68
2023-01-29T05:04:44.699Z,7.20
2023-01-29T05:07:14.915Z,6.93
2023-01-29T05:09:47.898Z,7.25
2023-01-29T05:12:18.346Z,6.22
2023-01-29T05:14:49.268Z,6.90
2023-01-29T05:17:20.644Z,7.13
2023-01-29T05:19:49.046Z,6.85
2023-01-29T05:22:22.589Z,7.28
2023-01-29T05:24:50.521Z,6.90
2023-01-29T05:27:56.661Z,6.45
2023-01-29T05:30:24.035Z,7.18
2023-01-29T05:32:51.359Z,6.90
2023-01-29T05:35:18.522Z,7.15
2023-01-29T05:37:46.014Z,7.70
2023-01-29T05:40:13.703Z,7.50
2023-01-29T05:42:41.157Z,6.90
2023-01-29T05:45:09.600Z,7.30
2023-01-29T05:47:36.801Z,7.13
2023-01-29T05:50:07.570Z,6.82
2023-01-29T05:52:34.846Z,7.25
2023-01-29T05:55:02.113Z,7.43
2023-01-29T05:57:29.358Z,7.40
2023-01-29T05:59:56.696Z,7.10
2023-01-29T06:02:23.956Z,6.93
2023-01-29T06:04:54.254Z,6.97
2023-01-29T06:07:21.458Z,6.72
2023-01-29T06:09:49.088Z,7.28
2023-01-29T06:12:16.430Z,7.72
2023-01-29T06:14:43.768Z,7.75
2023-01-29T06:17:11.031Z,7.10
2023-01-29T06:19:38.215Z,7.50
2023-01-29T06:22:05.472Z,7.32
2023-01-29T06:24:32.833Z,7.68
2023-01-29T06:27:00.010Z,7.05
2023-01-29T06:29:27.144Z,7.90
2023-01-29T06:31:54.596Z,7.10
2023-01-29T06:34:21.797Z,7.47
2023-01-29T06:36:49.008Z,7.80
2023-01-29T06:39:16.212Z,7.57
2023-01-29T06:41:45.302Z,7.85
2023-01-29T06:44:12.869Z,7.97
2023-01-29T06:46:40.143Z,8.15
2023-01-29T06:49:07.281Z,7.90
2023-01-29T06:51:34.590Z,8.70
2023-01-29T06:54:02.018Z,7.95
2023-01-29T06:56:30.778Z,8.45
2023-01-29T06:58:58.118Z,8.15
2023-01-29T07:01:35.614Z,8.88
2023-01-29T07:04:04.185Z,8.15
2023-01-29T07:06:34.003Z,8.27
2023-01-29T07:09:01.593Z,9.00
2023-01-29T07:11:29.627Z,7.97
2023-01-29T07:13:57.743Z,8.02
2023-01-29T07:16:28.155Z,8.30
2023-01-29T07:18:57.130Z,7.95
2023-01-29T07:21:25.171Z,8.32
2023-01-29T07:23:52.511Z,8.23
2023-01-29T07:26:22.405Z,7.78
2023-01-29T07:28:49.684Z,8.20
2023-01-29T07:31:17.236Z,7.78
2023-01-29T07:33:46.050Z,7.78
2023-01-29T07:36:16.803Z,7.88
2023-01-29T07:38:45.195Z,8.90
2023-01-29T07:41:13.088Z,8.40
2023-01-29T07:43:40.611Z,8.13
2023-01-29T07:46:09.059Z,8.38
2023-01-29T07:48:36.836Z,8.52
2023-01-29T07:51:04.730Z,8.82
2023-01-29T07:53:32.769Z,8.32
2023-01-29T07:56:00.279Z,8.48
2023-01-29T07:58:27.842Z,8.57
2023-01-29T08:01:01.311Z,8.13
2023-01-29T08:03:28.570Z,7.60
2023-01-29T08:05:58.162Z,8.93
2023-01-29T08:08:27.924Z,8.00
2023-01-29T08:10:55.412Z,7.70
2023-01-29T08:13:22.668Z,8.57
2023-01-29T08:15:50.056Z,9.15
2023-01-29T08:18:17.375Z,8.63
2023-01-29T08:20:44.781Z,8.27
2023-01-29T08:23:16.613Z,8.30
2023-01-29T08:25:43.967Z,8.65
2023-01-29T08:28:12.493Z,7.93
2023-01-29T08:30:40.145Z,8.40
2023-01-29T08:33:07.602Z,8.48
2023-01-29T08:35:35.538Z,8.90
2023-01-29T08:38:05.561Z,8.63
2023-01-29T08:40:35.320Z,7.75
2023-01-29T08:43:09.455Z,8.45
2023-01-29T08:45:44.442Z,8.35
2023-01-29T08:48:11.969Z,8.40
2023-01-29T08:50:39.419Z,8.98
2023-01-29T08:53:09.138Z,8.13
2023-01-29T08:55:39.333Z,8.55
2023-01-29T08:58:10.477Z,8.40
2023-01-29T09:00:37.828Z,8.00
2023-01-29T09:03:07.893Z,8.43
2023-01-29T09:05:38.802Z,8.27
2023-01-29T09:08:10.101Z,7.65
2023-01-29T09:10:43.271Z,8.30
2023-01-29T09:13:15.946Z,8.70
2023-01-29T09:15:43.542Z,8.30
2023-01-29T09:18:10.810Z,7.25
2023-01-29T09:20:38.212Z,8.43
2023-01-29T09:23:11.179Z,8.18
2023-01-29T09:25:38.998Z,8.13
2023-01-29T09:28:32.171Z,7.57
2023-01-29T09:31:03.187Z,7.53
2023-01-29T09:33:33.406Z,7.40
2023-01-29T09:36:06.920Z,7.57
2023-01-29T09:38:35.314Z,7.20
2023-01-29T09:41:56.884Z,6.68
2023-01-29T09:44:31.403Z,7.82
2023-01-29T09:47:05.246Z,7.72
2023-01-29T09:49:48.892Z,7.70
2023-01-29T09:52:32.691Z,7.18
2023-01-29T09:55:49.800Z,7.50
2023-01-29T09:58:37.892Z,8.20
2023-01-29T10:01:30.036Z,7.85
2023-01-29T10:04:37.101Z,8.40
2023-01-29T10:07:17.929Z,8.38
2023-01-29T10:10:49.231Z,7.60
2023-01-29T10:14:03.469Z,7.38
2023-01-29T10:17:29.546Z,7.63
2023-01-29T10:20:30.469Z,7.40
2023-01-29T10:23:25.283Z,8.10
2023-01-29T10:25:56.727Z,7.50
2023-01-29T10:28:47.598Z,7.72
2023-01-29T10:31:33.171Z,7.63
2023-01-29T10:34:29.722Z,8.43
2023-01-29T10:36:57.357Z,8.68
2023-01-29T10:39:27.293Z,8.07
2023-01-29T10:42:42.824Z,8.32
2023-01-29T10:45:45.852Z,8.75
2023-01-29T10:48:51.075Z,9.20
2023-01-29T10:51:58.142Z,8.98
2023-01-29T10:55:30.206Z,8.73
2023-01-29T10:58:34.093Z,9.50
2023-01-29T11:01:02.195Z,8.70
2023-01-29T11:03:34.337Z,9.05
2023-01-29T11:06:33.918Z,8.15
2023-01-29T11:09:35.743Z,8.23
2023-01-29T11:12:20.936Z,8.80
2023-01-29T11:14:58.944Z,8.95
2023-01-29T11:17:27.615Z,9.27
2023-01-29T11:19:55.913Z,8.80
2023-01-29T11:22:29.761Z,9.05
2023-01-29T11:25:20.997Z,8.80
2023-01-29T11:28:01.808Z,7.55
2023-01-29T11:30:34.765Z,9.02
2023-01-29T11:33:22.522Z,9.43
2023-01-29T11:35:52.614Z,8.10
2023-01-29T11:38:27.330Z,8.70
2023-01-29T11:41:14.882Z,8.40
2023-01-29T11:43:42.246Z,8.50
2023-01-29T11:46:16.201Z,8.25
2023-01-29T11:48:51.615Z,8.10
2023-01-29T11:51:29.245Z,7.82
2023-01-29T11:54:02.369Z,7.65
2023-01-29T11:56:44.785Z,8.50
2023-01-29T11:59:44.085Z,8.18
2023-01-29T12:02:42.345Z,8.18
2023-01-29T12:05:21.899Z,7.70
2023-01-29T12:07:54.805Z,7.95
2023-01-29T12:10:39.427Z,8.32
2023-01-29T12:13:20.106Z,8.13
2023-01-29T12:15:49.337Z,8.85
2023-01-29T12:18:36.754Z,7.90
2023-01-29T12:21:24.298Z,8.50
2023-01-29T12:24:06.111Z,8.30
2023-01-29T12:26:48.127Z,7.60
2023-01-29T12:30:07.812Z,7.22
2023-01-29T12:33:05.418Z,7.43
2023-01-29T12:35:47.741Z,7.65
2023-01-29T12:38:24.410Z,7.97
2023-01-29T12:41:17.597Z,7.60
2023-01-29T12:44:01.610Z,7.60
2023-01-29T12:46:40.547Z,7.80
2023-01-29T12:49:27.697Z,7.90
2023-01-29T12:52:06.940Z,6.97
2023-01-29T12:55:01.929Z,7.07
2023-01-29T12:57:34.777Z,7.03
2023-01-29T13:00:19.061Z,7.40
2023-01-29T13:03:08.465Z,7.53
2023-01-29T13:05:55.072Z,7.07
2023-01-29T13:08:36.958Z,6.38
2023-01-29T13:11:16.906Z,7.40
2023-01-29T13:13:55.256Z,7.28
2023-01-29T13:16:30.979Z,6.93
2023-01-29T13:19:23.962Z,6.28
2023-01-29T13:21:55.191Z,6.70
2023-01-29T13:24:26.057Z,7.13
2023-01-29T13:26:54.329Z,6.82
2023-01-29T13:29:29.372Z,7.18
2023-01-29T13:32:02.506Z,6.70
2023-01-29T13:34:46.309Z,6.50
2023-01-29T13:37:35.996Z,5.90
2023-01-29T13:40:18.565Z,5.60
2023-01-29T13:42:50.067Z,5.80
2023-01-29T13:45:43.751Z,6.50
2023-01-29T13:48:37.559Z,6.65
2023-01-29T13:51:20.090Z,6.55
2023-01-29T13:54:23.606Z,6.60
2023-01-29T13:57:03.799Z,6.50
2023-01-29T13:59:55.464Z,7.00
2023-01-29T14:02:28.691Z,7.15
2023-01-29T14:05:30.113Z,6.85
2023-01-29T14:08:13.547Z,7.22
2023-01-29T14:10:49.131Z,7.55
2023-01-29T14:13:19.061Z,7.07
2023-01-29T14:16:01.937Z,6.20
2023-01-29T14:18:34.416Z,7.18
2023-01-29T14:21:28.547Z,7.00
2023-01-29T14:24:20.986Z,6.80
2023-01-29T14:27:02.599Z,7.45
2023-01-29T14:29:38.169Z,6.78
2023-01-29T14:32:19.765Z,7.07
2023-01-29T14:35:04.458Z,7.65
2023-01-29T14:37:41.033Z,8.00
2023-01-29T14:40:11.753Z,8.00
2023-01-29T14:43:03.832Z,7.45
2023-01-29T14:45:38.826Z,6.47
2023-01-29T14:48:12.328Z,6.85
2023-01-29T14:50:48.575Z,7.00
2023-01-29T14:53:58.014Z,7.25
2023-01-29T14:56:59.493Z,6.90
2023-01-29T14:59:59.733Z,6.65
2023-01-29T15:02:42.269Z,6.23
2023-01-29T15:05:21.748Z,7.15
2023-01-29T15:08:40.902Z,7.60
2023-01-29T15:11:35.258Z,7.40
2023-01-29T15:14:34.007Z,7.45
2023-01-29T15:17:22.666Z,6.70
2023-01-29T15:19:50.047Z,6.75
2023-01-29T15:22:22.023Z,6.95
2023-01-29T15:25:24.112Z,6.90
2023-01-29T15:27:52.357Z,6.70
2023-01-29T15:30:33.355Z,6.88
2023-01-29T15:33:02.975Z,6.88
2023-01-29T15:35:41.229Z,6.72
2023-01-29T15:38:26.529Z,6.78
2023-01-29T15:41:01.369Z,6.35
2023-01-29T15:43:37.901Z,6.70
2023-01-29T15:46:25.700Z,6.32
2023-01-29T15:48:57.198Z,6.50
2023-01-29T15:51:28.326Z,6.30
2023-01-29T15:54:02.056Z,6.80
2023-01-29T15:56:41.530Z,6.50
2023-01-29T15:59:20.181Z,7.32
2023-01-29T16:01:47.907Z,7.50
2023-01-29T16:04:27.005Z,7.32
2023-01-29T16:06:56.589Z,7.28
2023-01-29T16:09:28.921Z,8.30
2023-01-29T16:11:59.905Z,6.72
2023-01-29T16:14:28.845Z,7.18
2023-01-29T16:16:56.243Z,6.45
2023-01-29T16:19:30.118Z,8.02
2023-01-29T16:22:04.044Z,7.28
2023-01-29T16:24:36.022Z,8.50
2023-01-29T16:27:14.886Z,8.20
2023-01-29T16:29:42.166Z,9.38
2023-01-29T16:32:13.789Z,8.10
2023-01-29T16:34:45.585Z,8.55
2023-01-29T16:37:36.365Z,8.52
2023-01-29T16:40:32.959Z,8.48
2023-01-29T16:43:43.653Z,9.02
2023-01-29T16:46:37.996Z,9.48
2023-01-29T16:49:30.401Z,9.50
2023-01-29T16:52:16.621Z,10.25
2023-01-29T16:54:44.217Z,10.45
2023-01-29T16:57:20.928Z,9.40
2023-01-29T16:59:50.122Z,9.00
2023-01-29T17:02:33.401Z,9.30
2023-01-29T17:05:34.269Z,11.50
2023-01-29T17:08:03.730Z,10.20
2023-01-29T17:10:32.780Z,11.23
2023-01-29T17:13:15.429Z,10.73
2023-01-29T17:15:45.815Z,10.68
2023-01-29T17:18:24.191Z,9.65
2023-01-29T17:20:55.446Z,9.38
2023-01-29T17:23:23.947Z,10.65
2023-01-29T17:25:54.382Z,9.48
2023-01-29T17:28:22.157Z,10.40
2023-01-29T17:31:04.954Z,11.65
2023-01-29T17:33:33.108Z,21.08
2023-01-29T17:36:00.576Z,20.90
2023-01-29T17:38:28.436Z,18.23
2023-01-29T17:41:27.244Z,18.73
2023-01-29T17:43:54.648Z,16.75
2023-01-29T17:46:22.715Z,15.02
2023-01-29T17:48:50.357Z,19.02
2023-01-29T17:51:18.636Z,15.48
2023-01-29T17:53:47.524Z,14.73
2023-01-29T17:56:30.228Z,14.85
2023-01-29T17:58:57.526Z,15.00
2023-01-29T18:01:24.950Z,15.43
2023-01-29T18:03:52.310Z,15.85
2023-01-29T18:06:30.020Z,17.45
2023-01-29T18:08:58.446Z,17.52
2023-01-29T18:11:26.023Z,18.58
2023-01-29T18:13:53.774Z,16.50
2023-01-29T18:16:22.913Z,26.08
2023-01-29T18:18:52.313Z,32.05
2023-01-29T18:21:20.313Z,20.52
2023-01-29T18:23:48.093Z,16.98
2023-01-29T18:29:30.128Z,15.38
2023-01-29T18:31:58.312Z,15.88
2023-01-29T18:34:32.394Z,16.20
2023-01-29T18:37:02.513Z,16.25
2023-01-29T18:39:30.080Z,16.70
2023-01-29T18:41:57.645Z,18.17
2023-01-29T18:44:25.286Z,18.27
2023-01-29T18:46:52.609Z,17.25
2023-01-29T18:49:19.874Z,16.92
2023-01-29T18:51:47.281Z,16.70
2023-01-29T18:54:14.723Z,16.35
2023-01-29T18:57:08.229Z,15.57
2023-01-29T18:59:29.615Z,15.25
2023-01-29T19:02:00.098Z,15.13
2023-01-29T19:04:27.522Z,15.95
2023-01-29T19:06:54.968Z,15.27
2023-01-29T19:09:22.435Z,16.58
2023-01-29T19:11:49.815Z,20.63
2023-01-29T19:14:17.194Z,22.00
2023-01-29T19:16:47.128Z,17.75
2023-01-29T19:19:16.661Z,17.27
2023-01-29T19:21:44.127Z,16.58
2023-01-29T19:24:13.320Z,17.25
2023-01-29T19:26:40.871Z,16.55
2023-01-29T19:29:09.631Z,16.67
2023-01-29T19:31:38.310Z,16.88
2023-01-29T19:34:05.838Z,17.48
2023-01-29T19:36:33.396Z,19.92
2023-01-29T19:39:00.844Z,17.50
2023-01-29T19:41:28.615Z,16.73
2023-01-29T19:43:56.848Z,19.08
2023-01-29T19:46:29.631Z,15.82
2023-01-29T19:48:58.934Z,16.90
2023-01-29T19:51:28.919Z,16.35
2023-01-29T19:53:56.890Z,17.30
2023-01-29T19:58:05.369Z,17.75
2023-01-29T20:00:09.457Z,17.75
2023-01-29T20:02:39.357Z,18.38
2023-01-29T20:05:13.218Z,17.58
2023-01-29T20:07:42.397Z,16.05
2023-01-29T20:10:17.722Z,15.73
2023-01-29T20:12:46.827Z,17.50
2023-01-29T20:15:23.391Z,16.52
2023-01-29T20:17:51.050Z,15.88
2023-01-29T20:20:19.605Z,17.30
2023-01-29T20:22:47.619Z,16.30
2023-01-29T20:25:16.412Z,17.42
2023-01-29T20:27:49.512Z,16.60
2023-01-29T20:30:17.724Z,15.48
2023-01-29T20:32:47.906Z,17.42
2023-01-29T20:35:15.728Z,18.00
2023-01-29T20:37:43.354Z,18.80
2023-01-29T20:40:13.926Z,21.98
2023-01-29T20:42:49.743Z,19.52
2023-01-29T20:45:17.955Z,21.20
2023-01-29T20:47:50.642Z,21.33
2023-01-29T20:50:20.106Z,20.33
2023-01-29T20:52:53.190Z,19.38
2023-01-29T20:55:25.457Z,21.15
2023-01-29T20:58:06.222Z,19.48
2023-01-29T21:00:42.811Z,20.08
2023-01-29T21:03:10.440Z,19.70
2023-01-29T21:05:38.143Z,20.67
2023-01-29T21:08:35.431Z,20.65
2023-01-29T21:11:30.595Z,19.98
2023-01-29T21:13:58.400Z,19.80
2023-01-29T21:16:26.359Z,20.33
2023-01-29T21:18:58.635Z,20.52
2023-01-29T21:21:26.856Z,21.15
2023-01-29T21:23:54.447Z,21.27
2023-01-29T21:26:23.304Z,20.13
2023-01-29T21:28:50.846Z,18.75
2023-01-29T21:31:18.619Z,19.50
2023-01-29T21:33:46.005Z,18.50
2023-01-29T21:36:15.181Z,19.80
2023-01-29T21:38:51.470Z,20.48
2023-01-29T21:41:19.226Z,21.25
2023-01-29T21:43:50.361Z,19.65
2023-01-29T21:46:18.030Z,18.35
2023-01-29T21:48:45.327Z,19.33
2023-01-29T21:51:12.597Z,18.52
2023-01-29T21:53:42.121Z,17.80
2023-01-29T21:56:09.815Z,19.52
2023-01-29T21:58:37.434Z,18.02
2023-01-29T22:01:36.725Z,18.17
2023-01-29T22:03:52.910Z,17.63
2023-01-29T22:06:20.484Z,15.85
2023-01-29T22:08:49.980Z,15.55
2023-01-29T22:11:18.056Z,15.25
2023-01-29T22:13:45.534Z,15.75
2023-01-29T22:16:12.956Z,16.73
2023-01-29T22:18:40.292Z,16.38
2023-01-29T22:21:07.598Z,16.85
2023-01-29T22:23:34.934Z,16.67
2023-01-29T22:26:08.998Z,15.90
2023-01-29T22:28:36.504Z,16.45
2023-01-29T22:31:05.927Z,15.02
2023-01-29T22:33:34.175Z,15.95
2023-01-29T22:36:02.188Z,18.05
2023-01-29T22:38:30.412Z,16.63
2023-01-29T22:41:00.542Z,18.67
2023-01-29T22:43:29.377Z,16.60
2023-01-29T22:45:57.022Z,16.75
2023-01-29T22:48:24.901Z,16.65
2023-01-29T22:51:10.337Z,17.35
2023-01-29T22:53:50.374Z,17.83
2023-01-29T22:56:21.220Z,17.75
2023-01-29T22:58:59.045Z,17.02
2023-01-29T23:01:33.102Z,16.67
2023-01-29T23:04:00.419Z,16.15
2023-01-29T23:06:27.698Z,15.73
2023-01-29T23:08:55.267Z,16.45
2023-01-29T23:11:23.781Z,15.93
2023-01-29T23:13:55.736Z,16.42
2023-01-29T23:16:27.947Z,16.55
2023-01-29T23:18:56.832Z,16.20
2023-01-29T23:21:25.456Z,16.45
2023-01-29T23:23:58.350Z,17.27
2023-01-29T23:26:45.212Z,15.95
2023-01-29T23:29:13.008Z,15.95
2023-01-29T23:31:40.752Z,15.25
2023-01-29T23:34:08.097Z,16.08
2023-01-29T23:36:35.674Z,17.00
2023-01-29T23:39:03.814Z,16.05
2023-01-29T23:41:31.152Z,15.88
2023-01-29T23:43:58.892Z,15.02
2023-01-29T23:46:26.261Z,14.57
2023-01-29T23:48:53.631Z,14.45
2023-01-29T23:51:20.915Z,14.50
2023-01-29T23:53:48.347Z,14.88
2023-01-29T23:56:15.936Z,17.20
2023-01-29T23:58:44.887Z,16.00
